Terminal Aerodrome Forecast
Issued by NWS Mt. Holly, NJ

Home | Current Version | Previous Version | Text Only | Print | Product List | Glossary On
Versions: 1 2 3 4 5 6 7 8 9 10 11 12 13 14 15 16 17 18 19 20 21 22 23 24 25 26 27 28 29 30 31 32 33 34 35 36 37 38 39 40 41 42 43 44 45 46
000
FTUS41 KPHI 300800 AAB
TAFABE
TAF AMD
KABE 300844Z 3009/0106 36003KT 1/4SM FG VV012
      TEMPO 3009/3012 2SM BR BKN150
     FM301300 11005KT P6SM SCT050
      TEMPO 3018/3022 BKN050
     FM010000 06003KT P6SM BKN150
     FM010500 07007KT 6SM BR BKN020=

USA.gov is the U.S. government's official web portal to all federal, state and local government web resources and services.